Time;durP1;ratioP1;P1;durP2;ratioP2;P2;SDS_P1;SDS_P2;PMS_P1;PMS_P2;Temp;Humidity;BMP_temperature;BMP_pressure;BME280_temperature;BME280_humidity;BME280_pressure;Samples;Min_cycle;Max_cycle;Signal;HPM_P1;HPM_P2
2022/10/05 00:00:15;;;;;;;13.50;12.73;;;;;;;12.31;100.00;101577.25;5025980;28;20032;-65
2022/10/05 00:02:40;;;;;;;12.88;12.18;;;;;;;12.40;100.00;101573.63;5024107;28;20120;-65
2022/10/05 00:05:31;;;;;;;13.43;12.63;;;;;;;12.37;100.00;101580.13;5030055;28;20566;-66
2022/10/05 00:08:09;;;;;;;13.07;12.38;;;;;;;12.32;100.00;101582.41;5026020;28;20112;-64
2022/10/05 00:10:35;;;;;;;13.48;12.73;;;;;;;12.34;100.00;101575.13;5012948;28;20030;-64
2022/10/05 00:13:01;;;;;;;14.38;13.50;;;;;;;12.39;100.00;101582.59;5022935;28;20033;-64
2022/10/05 00:15:28;;;;;;;13.25;12.50;;;;;;;12.42;100.00;101574.31;5025889;28;20432;-64
2022/10/05 00:17:54;;;;;;;13.23;12.52;;;;;;;12.37;100.00;101588.09;5018388;28;20033;-63
2022/10/05 00:20:23;;;;;;;13.30;12.60;;;;;;;12.40;100.00;101579.78;5024914;28;20112;-64
2022/10/05 00:22:59;;;;;;;13.85;13.05;;;;;;;12.32;100.00;101579.75;5019442;28;20469;-65
2022/10/05 00:25:25;;;;;;;13.65;12.85;;;;;;;12.29;100.00;101584.56;5019082;28;20041;-66
2022/10/05 00:27:56;;;;;;;13.20;12.50;;;;;;;12.31;100.00;101587.91;5025078;28;20022;-65
2022/10/05 00:30:24;;;;;;;13.43;12.70;;;;;;;12.31;100.00;101585.25;5025976;28;20531;-65
2022/10/05 00:32:50;;;;;;;13.40;12.70;;;;;;;12.31;100.00;101585.25;5025521;28;20076;-66
2022/10/05 00:35:18;;;;;;;13.38;12.68;;;;;;;12.28;100.00;101590.91;5026506;28;20021;-65
2022/10/05 00:37:50;;;;;;;13.20;12.50;;;;;;;12.35;100.00;101590.09;5027070;28;20127;-66
2022/10/05 00:40:24;;;;;;;15.45;14.45;;;;;;;12.30;100.00;101595.06;5029417;28;20029;-65
2022/10/05 00:42:55;;;;;;;13.40;12.70;;;;;;;12.33;100.00;101600.03;5023610;28;20065;-65
2022/10/05 00:45:29;;;;;;;13.35;12.65;;;;;;;12.39;100.00;101604.72;5027220;28;20128;-65
2022/10/05 00:48:37;;;;;;;13.68;12.88;;;;;;;12.37;100.00;101592.59;5022695;28;20045;-65
2022/10/05 00:51:23;;;;;;;13.45;12.70;;;;;;;12.32;100.00;101595.72;4983754;28;20273;-65
2022/10/05 00:54:16;;;;;;;13.70;12.90;;;;;;;12.28;100.00;101591.72;5027777;28;20041;-65
2022/10/05 00:56:44;;;;;;;13.52;12.82;;;;;;;12.29;100.00;101601.38;5020847;28;20063;-64
2022/10/05 00:59:28;;;;;;;13.55;12.77;;;;;;;12.18;100.00;101601.63;5020886;28;20105;-65
2022/10/05 01:02:19;;;;;;;13.23;12.52;;;;;;;12.21;100.00;101605.81;5026181;28;20104;-65
2022/10/05 01:04:55;;;;;;;14.13;13.32;;;;;;;12.29;100.00;101606.69;5019859;28;20026;-65
2022/10/05 01:07:23;;;;;;;13.15;12.45;;;;;;;12.23;100.00;101606.50;5018706;28;20026;-65
2022/10/05 01:10:24;;;;;;;13.65;12.85;;;;;;;12.17;100.00;101614.09;5020662;28;20037;-65
2022/10/05 01:13:01;;;;;;;13.38;12.68;;;;;;;12.13;100.00;101619.91;5015595;28;20033;-64
2022/10/05 01:15:45;;;;;;;13.50;12.77;;;;;;;12.16;100.00;101623.09;5027094;28;20057;-64
2022/10/05 01:18:56;;;;;;;13.05;12.35;;;;;;;12.15;100.00;101623.25;5023159;28;20436;-64
2022/10/05 01:21:34;;;;;;;13.98;13.18;;;;;;;12.13;100.00;101625.25;5025219;28;20388;-64
2022/10/05 01:24:06;;;;;;;13.27;12.57;;;;;;;12.12;100.00;101626.22;5026612;28;20029;-64
2022/10/05 01:27:00;;;;;;;13.07;12.38;;;;;;;12.17;100.00;101624.75;5020972;28;20048;-64
2022/10/05 01:29:47;;;;;;;13.67;12.87;;;;;;;12.13;100.00;101627.91;5025152;28;20057;-64
2022/10/05 01:32:24;;;;;;;13.77;12.98;;;;;;;12.16;100.00;101635.56;5017417;28;20590;-66
2022/10/05 01:35:08;;;;;;;13.35;12.65;;;;;;;12.21;100.00;101633.25;5024088;28;20037;-65
2022/10/05 01:37:46;;;;;;;13.95;13.15;;;;;;;12.12;100.00;101635.03;5016522;28;20042;-66
2022/10/05 01:40:32;;;;;;;13.38;12.65;;;;;;;12.18;100.00;101636.22;5019325;28;20504;-65
2022/10/05 01:43:18;;;;;;;13.38;12.68;;;;;;;12.23;100.00;101646.41;5020898;28;20508;-65
2022/10/05 01:45:59;;;;;;;13.38;12.68;;;;;;;12.21;100.00;101645.72;5020544;28;20045;-65
2022/10/05 01:48:30;;;;;;;13.65;12.85;;;;;;;12.17;100.00;101654.00;5026151;28;20051;-65
2022/10/05 01:51:06;;;;;;;13.55;12.80;;;;;;;12.24;100.00;101650.72;5022695;28;20033;-64
2022/10/05 01:53:59;;;;;;;13.30;12.60;;;;;;;12.21;100.00;101662.53;5017194;28;20018;-65
2022/10/05 01:56:34;;;;;;;12.95;12.25;;;;;;;12.17;100.00;101659.31;5015201;28;20036;-65
2022/10/05 01:59:27;;;;;;;13.23;12.52;;;;;;;12.18;100.00;101658.34;5018646;28;20048;-65
2022/10/05 02:01:59;;;;;;;13.27;12.57;;;;;;;12.12;100.00;101666.13;5025405;28;20041;-64
2022/10/05 02:04:37;;;;;;;13.55;12.85;;;;;;;12.14;100.00;101664.13;5023871;28;20392;-64
2022/10/05 02:07:09;;;;;;;13.65;12.95;;;;;;;12.10;100.00;101666.25;5025732;28;20140;-65
2022/10/05 02:09:46;;;;;;;13.25;12.55;;;;;;;12.11;100.00;101653.78;5023876;28;20063;-65
2022/10/05 02:12:16;;;;;;;13.60;12.88;;;;;;;12.14;100.00;101670.28;5024834;28;20037;-65
2022/10/05 02:14:46;;;;;;;14.23;13.43;;;;;;;12.22;100.00;101680.16;5022879;28;20033;-64
2022/10/05 02:17:20;;;;;;;13.25;12.55;;;;;;;12.10;100.00;101674.25;5025677;28;20021;-64
2022/10/05 02:20:01;;;;;;;14.30;13.50;;;;;;;12.08;100.00;101673.56;5017354;28;20171;-65
2022/10/05 02:22:33;;;;;;;14.00;13.20;;;;;;;12.12;100.00;101679.44;5026716;28;20048;-64
2022/10/05 02:25:08;;;;;;;14.73;13.82;;;;;;;12.15;100.00;101679.09;5023659;28;20040;-65
2022/10/05 02:27:39;;;;;;;13.82;13.02;;;;;;;12.01;100.00;101682.34;5017993;28;20022;-65
2022/10/05 02:30:06;;;;;;;13.20;12.50;;;;;;;12.03;100.00;101680.34;5021616;28;20476;-65
2022/10/05 02:32:43;;;;;;;13.02;12.35;;;;;;;12.06;100.00;101690.69;5028142;28;20094;-65
2022/10/05 02:35:17;;;;;;;13.90;13.10;;;;;;;12.00;100.00;101693.97;5023246;28;20029;-65
2022/10/05 02:37:54;;;;;;;13.55;12.75;;;;;;;12.02;100.00;101700.78;5025121;28;20041;-65
2022/10/05 02:40:57;;;;;;;13.90;13.10;;;;;;;11.95;100.00;101701.56;5025817;28;20064;-65
2022/10/05 02:43:37;;;;;;;13.50;12.80;;;;;;;12.02;100.00;101699.97;5025486;28;20018;-64
2022/10/05 02:46:24;;;;;;;13.63;12.90;;;;;;;12.02;100.00;101700.78;5019675;28;20121;-64
2022/10/05 02:49:02;;;;;;;13.68;12.88;;;;;;;12.03;100.00;101702.44;5028385;28;20373;-65
2022/10/05 02:51:46;;;;;;;13.23;12.52;;;;;;;12.06;100.00;101701.31;5020823;28;20088;-65
2022/10/05 02:54:41;;;;;;;13.80;13.00;;;;;;;12.03;100.00;101705.13;5020655;28;20033;-65
2022/10/05 02:57:22;;;;;;;14.00;13.20;;;;;;;12.03;100.00;101706.94;5022947;28;20373;-65
2022/10/05 02:59:57;;;;;;;13.00;12.30;;;;;;;11.97;100.00;101708.41;5017185;28;20042;-65
2022/10/05 03:02:39;;;;;;;13.93;13.13;;;;;;;11.93;100.00;101696.41;5024970;28;20163;-65
2022/10/05 03:05:35;;;;;;;13.95;13.15;;;;;;;11.97;100.00;101710.22;5025400;28;20575;-65
2022/10/05 03:08:24;;;;;;;13.40;12.70;;;;;;;12.01;100.00;101708.94;5017655;28;20500;-65
2022/10/05 03:10:55;;;;;;;13.95;13.15;;;;;;;12.02;100.00;101713.25;5020853;28;20045;-65
2022/10/05 03:13:29;;;;;;;13.00;12.30;;;;;;;12.00;100.00;101715.25;5012434;28;20026;-65
2022/10/05 03:16:19;;;;;;;13.15;12.45;;;;;;;11.96;100.00;101719.19;5026696;28;20485;-64
2022/10/05 03:19:19;;;;;;;13.27;12.57;;;;;;;11.97;100.00;101723.50;5025276;28;20041;-65
2022/10/05 03:21:52;;;;;;;13.25;12.55;;;;;;;11.95;100.00;101722.84;5021911;28;20130;-64
2022/10/05 03:24:40;;;;;;;13.95;13.15;;;;;;;12.00;100.00;101731.19;5027055;28;20021;-65
2022/10/05 03:27:36;;;;;;;13.43;12.70;;;;;;;11.97;100.00;101724.38;5023915;28;20448;-64
2022/10/05 03:30:12;;;;;;;13.80;13.00;;;;;;;12.04;100.00;101727.22;5019095;28;20202;-65
2022/10/05 03:32:56;;;;;;;14.35;13.50;;;;;;;11.96;100.00;101730.66;5021377;28;20034;-67
2022/10/05 03:35:34;;;;;;;13.45;12.73;;;;;;;12.01;100.00;101728.38;5022316;28;20018;-65
2022/10/05 03:38:19;;;;;;;13.52;12.77;;;;;;;11.94;100.00;101732.66;5023041;28;20543;-65
2022/10/05 03:40:45;;;;;;;14.00;13.20;;;;;;;11.96;100.00;101729.81;5024879;28;20022;-66
2022/10/05 03:43:34;;;;;;;13.55;12.80;;;;;;;11.96;100.00;101737.81;5020041;28;20018;-65
2022/10/05 03:46:12;;;;;;;14.82;13.90;;;;;;;11.91;100.00;101732.97;5014446;28;20095;-66
2022/10/05 03:48:43;;;;;;;14.10;13.30;;;;;;;11.88;100.00;101731.44;5019131;28;20472;-65
2022/10/05 03:51:22;;;;;;;13.20;12.50;;;;;;;11.95;100.00;101728.16;5025213;28;20037;-65
2022/10/05 03:53:53;;;;;;;13.93;13.13;;;;;;;11.91;100.00;101726.81;5021182;28;20464;-65
2022/10/05 03:56:36;;;;;;;15.13;14.13;;;;;;;11.86;100.00;101728.09;5019204;28;20072;-65
2022/10/05 03:59:19;;;;;;;13.80;13.00;;;;;;;11.95;100.00;101733.47;5016420;28;20022;-65
2022/10/05 04:01:54;;;;;;;13.82;13.02;;;;;;;11.83;100.00;101727.59;5019848;28;20033;-65
2022/10/05 04:04:33;;;;;;;14.35;13.55;;;;;;;11.86;100.00;101728.09;5026031;28;20030;-65
2022/10/05 04:07:00;;;;;;;13.30;12.60;;;;;;;11.79;100.00;101732.31;5025286;28;20041;-65
2022/10/05 04:09:46;;;;;;;14.02;13.23;;;;;;;11.79;100.00;101734.97;5023652;28;20025;-66
2022/10/05 04:12:23;;;;;;;14.70;13.80;;;;;;;11.79;100.00;101740.31;5022912;28;20049;-64
2022/10/05 04:14:55;;;;;;;14.05;13.25;;;;;;;11.74;100.00;101739.91;5024563;28;20030;-65
2022/10/05 04:17:57;;;;;;;14.23;13.43;;;;;;;11.70;100.00;101740.38;5026450;28;20116;-66
2022/10/05 04:20:45;;;;;;;14.02;13.23;;;;;;;11.75;100.00;101751.38;5017017;28;20037;-66
2022/10/05 04:23:24;;;;;;;13.73;12.93;;;;;;;11.81;100.00;101764.09;5028531;28;20033;-66
2022/10/05 04:25:58;;;;;;;14.02;13.23;;;;;;;11.86;100.00;101760.00;5019176;28;20033;-66
2022/10/05 04:28:33;;;;;;;13.77;12.98;;;;;;;11.82;100.00;101771.09;5025907;28;20067;-65
2022/10/05 04:31:01;;;;;;;13.77;12.98;;;;;;;11.84;100.00;101769.13;5021911;28;20037;-65
2022/10/05 04:33:26;;;;;;;13.88;13.07;;;;;;;11.74;100.00;101768.31;5023774;28;20022;-66
2022/10/05 04:36:37;;;;;;;13.82;13.02;;;;;;;11.86;100.00;101767.97;5022381;28;20080;-66
2022/10/05 04:39:27;;;;;;;13.55;12.77;;;;;;;12.02;100.00;101772.59;5010010;28;20025;-65
2022/10/05 04:42:11;;;;;;;13.90;13.10;;;;;;;12.01;100.00;101767.44;5009240;28;20033;-66
2022/10/05 04:44:57;;;;;;;13.35;12.65;;;;;;;13.78;100.00;101780.97;5035231;28;20045;-63
2022/10/05 04:47:41;;;;;;;14.30;13.40;;;;;;;14.78;100.00;101778.91;5024667;28;20118;-65
2022/10/05 04:50:17;;;;;;;12.70;12.00;;;;;;;15.43;100.00;101779.47;5029848;28;20021;-64
2022/10/05 04:53:16;;;;;;;12.18;11.57;;;;;;;16.35;100.00;101786.66;5030085;28;20037;-66
2022/10/05 04:55:56;;;;;;;13.48;12.77;;;;;;;17.24;100.00;101780.31;5023654;28;20037;-65
2022/10/05 04:58:40;;;;;;;12.40;11.80;;;;;;;19.12;100.00;101785.22;5025432;28;20045;-66
2022/10/05 05:01:24;;;;;;;12.40;11.80;;;;;;;20.91;100.00;101780.84;5016689;28;20108;-66
2022/10/05 05:03:55;;;;;;;12.87;12.27;;;;;;;21.36;95.71;101784.41;5024034;28;20519;-66
2022/10/05 05:06:31;;;;;;;13.68;12.98;;;;;;;22.52;89.01;101785.88;5026631;28;20053;-67
2022/10/05 05:09:12;;;;;;;12.77;12.18;;;;;;;22.19;88.55;101787.00;5018741;28;20088;-66
2022/10/05 05:11:40;;;;;;;13.60;12.90;;;;;;;18.25;100.00;101789.22;5025301;28;20525;-65
2022/10/05 05:14:14;;;;;;;12.35;11.75;;;;;;;16.91;100.00;101779.91;5023251;28;20059;-66
2022/10/05 05:16:44;;;;;;;12.80;12.20;;;;;;;16.93;100.00;101782.38;5025258;28;20380;-66
2022/10/05 05:19:31;;;;;;;13.38;12.68;;;;;;;16.76;100.00;101787.13;5022876;28;20025;-66
2022/10/05 05:22:00;;;;;;;13.65;12.95;;;;;;;20.42;99.47;101777.59;5025177;28;20315;-65
2022/10/05 05:25:01;;;;;;;13.35;12.65;;;;;;;16.83;100.00;101788.03;5023895;28;20063;-66
2022/10/05 05:27:39;;;;;;;13.10;12.45;;;;;;;17.11;100.00;101794.41;5009585;28;20051;-65
2022/10/05 05:30:07;;;;;;;13.45;12.75;;;;;;;16.35;100.00;101798.19;5019836;28;20033;-65
2022/10/05 05:32:39;;;;;;;13.40;12.70;;;;;;;15.98;100.00;101804.38;5021200;28;20108;-65
2022/10/05 05:35:37;;;;;;;13.65;12.95;;;;;;;15.75;100.00;101797.16;5019706;28;20041;-65
2022/10/05 05:38:44;;;;;;;14.23;13.43;;;;;;;15.41;100.00;101799.34;5025736;28;20037;-65
2022/10/05 05:41:13;;;;;;;13.73;13.02;;;;;;;15.51;100.00;101804.50;5026466;28;20056;-65
2022/10/05 05:43:57;;;;;;;13.48;12.77;;;;;;;15.66;100.00;101808.13;5026397;28;20025;-65
2022/10/05 05:46:27;;;;;;;13.82;13.13;;;;;;;15.43;100.00;101800.03;5026190;28;20049;-66
2022/10/05 05:48:56;;;;;;;13.30;12.60;;;;;;;15.32;100.00;101814.59;5016571;28;20040;-66
2022/10/05 05:51:42;;;;;;;13.15;12.45;;;;;;;15.37;100.00;101806.06;5021834;28;20053;-66
2022/10/05 05:54:19;;;;;;;13.60;12.90;;;;;;;15.67;100.00;101802.59;5024185;28;20040;-65
2022/10/05 05:56:54;;;;;;;14.18;13.38;;;;;;;15.14;100.00;101806.84;5020571;28;20522;-65
2022/10/05 05:59:29;;;;;;;13.80;13.05;;;;;;;15.60;100.00;101806.09;5018719;28;20026;-66
2022/10/05 06:02:03;;;;;;;14.07;13.27;;;;;;;15.40;100.00;101811.06;5021950;28;20018;-66
2022/10/05 06:04:45;;;;;;;13.02;12.32;;;;;;;15.32;100.00;101819.13;5031220;28;20033;-65
2022/10/05 06:07:18;;;;;;;14.27;13.48;;;;;;;15.27;100.00;101814.28;5022971;28;20071;-65
2022/10/05 06:09:52;;;;;;;13.93;13.18;;;;;;;15.24;100.00;101817.31;5020039;28;20052;-67
2022/10/05 06:12:30;;;;;;;13.20;12.52;;;;;;;15.44;100.00;101823.91;5018926;28;20026;-65
2022/10/05 06:15:21;;;;;;;13.35;12.65;;;;;;;15.73;100.00;101833.97;5022019;28;20029;-65
2022/10/05 06:17:55;;;;;;;13.32;12.63;;;;;;;15.68;100.00;101828.31;5022700;28;20029;-67
2022/10/05 06:20:29;;;;;;;13.87;13.07;;;;;;;15.45;100.00;101838.13;5023238;28;20939;-67
2022/10/05 06:22:59;;;;;;;13.80;13.00;;;;;;;15.47;100.00;101850.28;5021774;28;20029;-66
2022/10/05 06:25:43;;;;;;;14.73;13.82;;;;;;;15.67;100.00;101853.41;5019949;28;20057;-66
2022/10/05 06:28:11;;;;;;;14.13;13.32;;;;;;;15.68;100.00;101851.56;5014685;28;20052;-66
2022/10/05 06:30:44;;;;;;;14.40;13.60;;;;;;;15.79;100.00;101859.22;5022098;28;20029;-67
2022/10/05 06:33:31;;;;;;;14.15;13.35;;;;;;;15.79;100.00;101853.84;5022715;28;20030;-67
2022/10/05 06:36:11;;;;;;;19.10;17.70;;;;;;;15.84;100.00;101866.69;5019554;28;20029;-68
2022/10/05 06:39:09;;;;;;;13.25;12.55;;;;;;;15.58;100.00;101870.47;5026115;28;20033;-67
2022/10/05 06:41:41;;;;;;;13.43;12.73;;;;;;;15.79;100.00;101875.25;5023639;28;20034;-67
2022/10/05 06:44:19;;;;;;;13.35;12.65;;;;;;;16.03;100.00;101880.44;5025282;28;20580;-65
2022/10/05 06:47:13;;;;;;;13.30;12.60;;;;;;;16.37;100.00;101876.50;5026730;28;20462;-66
2022/10/05 06:49:43;;;;;;;;;;;;;;;15.87;100.00;101877.88;5022394;28;20050;-67
2022/10/05 06:52:24;;;;;;;14.25;13.45;;;;;;;16.43;100.00;101881.16;5018315;28;20718;-69
2022/10/05 06:55:15;;;;;;;14.00;13.20;;;;;;;16.52;100.00;101885.41;5017825;28;20036;-71
2022/10/05 06:58:12;;;;;;;14.98;14.07;;;;;;;17.55;100.00;101882.03;5020878;28;20087;-70
2022/10/05 07:01:10;;;;;;;16.08;15.07;;;;;;;18.07;100.00;101880.16;5003347;28;20049;-70
2022/10/05 07:03:52;;;;;;;13.98;13.18;;;;;;;19.05;100.00;101890.94;5018738;28;20025;-70
2022/10/05 07:06:30;;;;;;;12.95;12.25;;;;;;;18.66;100.00;101887.97;5020951;28;20041;-67
2022/10/05 07:09:24;;;;;;;13.48;12.77;;;;;;;18.74;100.00;101901.25;5023612;28;20195;-66
2022/10/05 07:12:15;;;;;;;12.55;11.95;;;;;;;18.37;100.00;101894.31;5023315;28;20029;-67
2022/10/05 07:15:02;;;;;;;14.55;13.75;;;;;;;18.83;100.00;101900.09;5004125;28;20107;-67
2022/10/05 07:17:43;;;;;;;13.73;13.02;;;;;;;20.34;100.00;101898.25;5021685;28;20022;-67
2022/10/05 07:20:40;;;;;;;14.05;13.27;;;;;;;18.70;100.00;101900.81;5021508;28;20026;-67
2022/10/05 07:23:09;;;;;;;15.38;14.48;;;;;;;19.09;100.00;101890.53;5023856;28;20037;-67
2022/10/05 07:25:45;;;;;;;14.20;13.40;;;;;;;19.11;100.00;101904.63;5024907;28;20048;-67
2022/10/05 07:28:31;;;;;;;13.35;12.65;;;;;;;19.65;100.00;101904.72;5023419;28;20080;-67
2022/10/05 07:31:04;;;;;;;14.27;13.48;;;;;;;19.94;99.97;101894.66;5021581;28;20027;-66
2022/10/05 07:33:44;;;;;;;12.60;12.00;;;;;;;19.94;100.00;101895.50;5028193;28;20029;-67
2022/10/05 07:40:05;;;;;;;12.32;11.73;;;;;;;24.94;67.62;101903.03;5025402;28;20098;-67
2022/10/05 07:42:49;;;;;;;11.82;11.32;;;;;;;26.10;57.85;101897.56;5016741;28;20045;-68
2022/10/05 07:45:33;;;;;;;;;;;;;;;27.62;51.49;101904.47;5025760;28;20045;-68
2022/10/05 07:48:31;;;;;;;12.55;11.95;;;;;;;27.68;48.73;101903.47;5027330;28;20272;-69
2022/10/05 07:51:11;;;;;;;12.85;12.25;;;;;;;26.43;48.55;101892.16;5029513;28;20116;-68
2022/10/05 07:53:46;;;;;;;13.00;12.40;;;;;;;27.35;46.98;101898.97;5024610;28;20087;-68
2022/10/05 07:56:24;;;;;;;12.48;11.88;;;;;;;27.17;46.60;101910.97;5022758;28;20021;-68
2022/10/05 07:59:18;;;;;;;12.00;11.50;;;;;;;28.02;42.39;101908.72;5027180;28;20033;-68
2022/10/05 08:01:50;;;;;;;12.23;11.63;;;;;;;26.85;46.53;101899.06;5025806;28;20041;-68
2022/10/05 08:04:46;;;;;;;12.55;11.95;;;;;;;28.22;44.45;101908.94;5023109;28;20033;-67
2022/10/05 08:07:16;;;;;;;11.93;11.43;;;;;;;28.75;41.42;101901.72;5021088;28;20033;-67
2022/10/05 08:09:52;;;;;;;11.75;11.25;;;;;;;27.87;43.16;101905.84;5028520;28;20105;-68
2022/10/05 08:12:21;;;;;;;11.63;11.13;;;;;;;26.86;42.89;101895.25;5031486;28;20028;-67
2022/10/05 08:14:55;;;;;;;12.38;11.77;;;;;;;23.14;56.37;101903.09;5020919;28;20034;-68
2022/10/05 08:17:45;;;;;;;12.93;12.32;;;;;;;24.07;59.50;101891.91;5021825;28;20129;-67
2022/10/05 08:20:38;;;;;;;12.93;12.32;;;;;;;26.44;49.25;101892.97;5027377;28;20381;-67
2022/10/05 08:23:37;;;;;;;12.63;12.02;;;;;;;26.00;48.49;101884.59;5021059;28;20389;-69
2022/10/05 08:26:25;;;;;;;12.43;11.82;;;;;;;25.28;49.09;101889.69;5027483;28;20021;-69
2022/10/05 08:29:05;;;;;;;12.25;11.65;;;;;;;25.95;48.65;101883.69;5020420;28;20037;-67
2022/10/05 08:31:37;;;;;;;12.50;11.90;;;;;;;25.73;49.20;101899.84;5029886;28;20044;-67
2022/10/05 08:34:08;;;;;;;12.23;11.63;;;;;;;23.10;56.48;101899.97;5018966;28;20034;-67
2022/10/05 08:37:12;;;;;;;13.05;12.45;;;;;;;25.33;50.77;101898.75;5027520;28;20088;-67
2022/10/05 08:40:21;;;;;;;14.05;13.35;;;;;;;24.28;53.31;101893.25;5028611;28;20041;-68
2022/10/05 08:43:10;;;;;;;13.60;12.90;;;;;;;22.51;60.27;101892.41;5057563;28;20028;-67
2022/10/05 08:45:54;;;;;;;13.18;12.55;;;;;;;25.41;52.93;101889.38;5030254;28;20099;-67
2022/10/05 08:48:38;;;;;;;13.73;13.02;;;;;;;26.62;47.13;101875.59;5024464;28;20053;-68
2022/10/05 08:51:09;;;;;;;12.65;12.05;;;;;;;26.03;47.04;101881.38;5024635;28;20029;-67
2022/10/05 08:53:45;;;;;;;14.15;13.45;;;;;;;26.68;45.69;101869.97;5024486;28;20028;-67
2022/10/05 08:56:29;;;;;;;12.98;12.38;;;;;;;26.78;44.43;101877.44;5022127;28;20025;-67
2022/10/05 08:59:19;;;;;;;13.88;13.18;;;;;;;24.99;49.22;101886.84;5030598;28;20442;-67
2022/10/05 09:01:57;;;;;;;12.90;12.30;;;;;;;23.61;50.09;101882.53;5026823;28;20056;-67
2022/10/05 09:04:28;;;;;;;12.93;12.32;;;;;;;23.14;60.61;101889.53;5026204;28;20022;-68
2022/10/05 09:07:09;;;;;;;13.45;12.75;;;;;;;24.10;51.91;101888.75;5019258;28;20442;-67
2022/10/05 09:10:13;;;;;;;13.55;12.85;;;;;;;25.86;46.99;101892.22;5029613;28;20100;-68
2022/10/05 09:12:45;;;;;;;12.45;11.85;;;;;;;25.94;45.10;101892.91;5025300;28;20029;-67
2022/10/05 09:15:44;;;;;;;12.90;12.30;;;;;;;25.55;44.87;101896.19;5024351;28;20040;-67
2022/10/05 09:18:33;;;;;;;12.45;11.85;;;;;;;26.13;43.40;101907.94;5058139;28;20061;-68
2022/10/05 09:21:30;;;;;;;12.60;12.00;;;;;;;26.53;43.67;101910.56;5017041;28;20026;-65
2022/10/05 09:24:11;;;;;;;14.00;13.30;;;;;;;24.36;45.51;101908.41;5014508;28;20025;-65
2022/10/05 09:27:06;;;;;;;12.32;11.73;;;;;;;24.23;48.22;101907.50;5022109;28;20065;-66
2022/10/05 09:29:37;;;;;;;13.27;12.57;;;;;;;23.32;50.13;101913.06;5021650;28;20033;-65
2022/10/05 09:32:22;;;;;;;15.38;14.50;;;;;;;22.62;52.66;101905.19;5019323;28;20026;-67
2022/10/05 09:35:29;;;;;;;13.38;12.70;;;;;;;22.28;54.14;101903.81;5021072;28;20460;-67
2022/10/05 09:38:09;;;;;;;15.13;14.25;;;;;;;21.55;56.57;101900.63;5017290;28;20047;-66
2022/10/05 09:41:09;;;;;;;14.45;13.65;;;;;;;20.97;62.96;101885.19;5018558;28;20060;-66
2022/10/05 09:43:52;;;;;;;14.25;13.45;;;;;;;21.11;65.47;101884.13;5025646;28;20033;-66
2022/10/05 09:46:59;;;;;;;14.43;13.63;;;;;;;21.41;65.05;101889.06;5015135;28;20088;-66
2022/10/05 09:49:39;;;;;;;12.93;12.27;;;;;;;21.64;56.58;101883.97;5007695;28;20049;-66
2022/10/05 09:52:11;;;;;;;13.75;13.05;;;;;;;22.05;57.35;101875.44;5024954;28;20033;-66
2022/10/05 09:55:19;;;;;;;13.38;12.68;;;;;;;21.32;64.40;101863.34;5022022;28;20024;-66
2022/10/05 09:57:56;;;;;;;15.95;14.98;;;;;;;19.97;72.29;101864.63;4992894;28;20423;-67
2022/10/05 10:00:22;;;;;;;13.30;12.60;;;;;;;19.39;80.00;101874.94;5017104;28;20026;-69
2022/10/05 10:03:05;;;;;;;13.70;12.95;;;;;;;19.54;78.73;101871.09;5024270;28;20025;-68
2022/10/05 10:05:59;;;;;;;13.05;12.35;;;;;;;19.87;74.05;101865.03;5044478;28;20021;-69
2022/10/05 10:09:11;;;;;;;13.65;12.90;;;;;;;19.77;74.34;101859.19;5022474;28;20480;-67
2022/10/05 10:11:59;;;;;;;13.52;12.82;;;;;;;20.25;73.29;101864.47;4993155;28;20057;-68
2022/10/05 10:15:06;;;;;;;12.60;12.00;;;;;;;20.06;75.46;101871.50;5021057;28;20103;-68
2022/10/05 10:18:00;;;;;;;14.05;13.25;;;;;;;19.86;77.68;101868.75;5028990;28;20060;-69
2022/10/05 10:20:37;;;;;;;12.30;11.70;;;;;;;19.49;79.62;101878.13;5021308;28;20034;-69
2022/10/05 10:23:21;;;;;;;13.13;12.43;;;;;;;19.25;82.75;101876.78;5023869;28;20021;-69
2022/10/05 10:25:58;;;;;;;14.15;13.35;;;;;;;19.27;82.10;101882.78;5024300;28;20119;-68
2022/10/05 10:28:45;;;;;;;13.27;12.57;;;;;;;19.71;75.82;101866.22;5023297;28;20041;-69
2022/10/05 10:31:37;;;;;;;13.20;12.50;;;;;;;19.60;73.66;101875.69;5024634;28;20025;-67
2022/10/05 10:34:33;;;;;;;12.90;12.20;;;;;;;19.73;72.16;101864.16;5030155;28;20037;-68
2022/10/05 10:37:04;;;;;;;12.40;11.80;;;;;;;19.94;69.68;101873.13;5022841;28;20025;-68
2022/10/05 10:40:07;;;;;;;14.20;13.40;;;;;;;20.33;68.19;101865.06;5019326;28;20062;-68
2022/10/05 10:42:55;;;;;;;12.98;12.27;;;;;;;19.38;78.71;101867.91;5043659;28;20021;-69
2022/10/05 10:45:45;;;;;;;14.27;13.48;;;;;;;19.58;81.14;101868.84;5021742;28;20496;-68
2022/10/05 10:48:29;;;;;;;13.07;12.38;;;;;;;19.51;83.21;101882.25;5021445;28;20037;-67
2022/10/05 10:51:38;;;;;;;13.35;12.65;;;;;;;18.77;83.20;101864.03;5022417;28;20078;-69
2022/10/05 10:54:26;;;;;;;14.65;13.77;;;;;;;19.63;78.19;101868.28;5023051;28;21014;-68
2022/10/05 10:57:01;;;;;;;13.07;12.38;;;;;;;19.63;78.33;101877.16;5026273;28;20076;-69
2022/10/05 10:59:52;;;;;;;13.30;12.60;;;;;;;19.67;77.90;101859.56;5024766;28;20026;-69
2022/10/05 11:02:55;;;;;;;13.38;12.68;;;;;;;19.55;76.04;101872.75;5021984;28;20032;-68
2022/10/05 11:05:46;;;;;;;13.90;13.10;;;;;;;18.63;75.11;101854.19;5016956;28;20056;-68
2022/10/05 11:08:34;;;;;;;13.45;12.75;;;;;;;19.39;72.04;101854.28;5021776;28;20040;-67
2022/10/05 11:11:11;;;;;;;14.20;13.40;;;;;;;19.43;71.51;101847.44;5029306;28;20033;-69
2022/10/05 11:14:01;;;;;;;13.23;12.52;;;;;;;19.73;69.05;101841.78;5019482;28;20037;-68
2022/10/05 11:17:06;;;;;;;13.75;12.95;;;;;;;19.65;72.77;101837.41;5025891;28;20021;-68
2022/10/05 11:19:54;;;;;;;13.40;12.70;;;;;;;19.54;70.05;101822.66;5027114;28;20037;-67
2022/10/05 11:22:44;;;;;;;13.00;12.30;;;;;;;19.67;69.51;101818.34;5023721;28;20388;-67
2022/10/05 11:25:26;;;;;;;14.35;13.55;;;;;;;20.06;65.56;101815.75;5046126;28;20025;-68
2022/10/05 11:27:58;;;;;;;14.20;13.40;;;;;;;19.78;66.74;101805.13;5025528;28;20951;-69
2022/10/05 11:30:34;;;;;;;13.60;12.82;;;;;;;19.66;69.67;101795.16;5026327;28;20038;-69
2022/10/05 11:33:23;;;;;;;13.38;12.68;;;;;;;19.43;71.63;101799.00;5022867;28;20766;-70
2022/10/05 11:36:19;;;;;;;13.27;12.57;;;;;;;19.66;72.03;101785.22;5026689;28;20051;-69
2022/10/05 11:38:53;;;;;;;14.38;13.55;;;;;;;19.45;73.47;101799.63;5016134;28;20041;-68
2022/10/05 11:41:31;;;;;;;14.65;13.75;;;;;;;19.00;74.04;101798.41;5022728;28;20029;-70
2022/10/05 11:44:34;;;;;;;14.55;13.70;;;;;;;19.60;71.52;101796.81;5022628;28;20562;-69
2022/10/05 11:47:03;;;;;;;13.23;12.52;;;;;;;19.94;69.25;101798.53;5019146;28;20045;-70
2022/10/05 11:49:36;;;;;;;13.10;12.40;;;;;;;20.01;69.81;101791.28;5024707;28;20026;-68
2022/10/05 11:52:16;;;;;;;12.95;12.25;;;;;;;19.58;71.17;101804.25;5027070;28;20032;-70
2022/10/05 11:55:23;;;;;;;12.57;11.98;;;;;;;19.67;68.81;101810.28;5029377;28;20038;-70
2022/10/05 11:58:00;;;;;;;13.25;12.55;;;;;;;19.41;71.29;101795.69;5016146;28;20404;-69
2022/10/05 12:00:41;;;;;;;12.60;11.93;;;;;;;19.57;68.23;101806.13;5025043;28;20033;-68
2022/10/05 12:03:12;;;;;;;12.73;12.05;;;;;;;19.88;70.05;101802.03;5030014;28;20083;-67
2022/10/05 12:06:11;;;;;;;13.73;12.93;;;;;;;19.45;71.06;101807.69;5025920;28;20037;-68
2022/10/05 12:09:06;;;;;;;12.90;12.20;;;;;;;19.71;70.85;101798.91;5025691;28;20675;-69
2022/10/05 12:11:41;;;;;;;13.38;12.68;;;;;;;19.64;71.32;101808.00;5024926;28;20032;-70
2022/10/05 12:14:23;;;;;;;13.38;12.68;;;;;;;19.75;71.66;101810.09;5019098;28;20044;-69